Time;durP1;ratioP1;P1;durP2;ratioP2;P2;SDS_P1;SDS_P2;PMS_P1;PMS_P2;Temp;Humidity;BMP_temperature;BMP_pressure;BME280_temperature;BME280_humidity;BME280_pressure;Samples;Min_cycle;Max_cycle;Signal;HPM_P1;HPM_P2
2021/10/08 00:01:02;;;;;;;19.65;8.95;;;;;;;5.23;62.83;143549.47;1835013;77;22550;-64
2021/10/08 00:03:37;;;;;;;18.77;9.13;;;;;;;5.19;62.90;143538.22;1853497;77;22163;-63
2021/10/08 00:06:12;;;;;;;18.92;9.18;;;;;;;5.16;62.95;143530.75;1834959;77;22136;-61
2021/10/08 00:09:06;;;;;;;20.77;9.33;;;;;;;5.14;62.76;143525.75;1848139;77;22123;-61
2021/10/08 00:11:41;;;;;;;23.80;9.48;;;;;;;5.15;62.63;143528.27;1834997;77;22132;-62
2021/10/08 00:14:40;;;;;;;20.35;8.35;;;;;;;5.15;62.53;143528.27;1834174;77;22184;-62
2021/10/08 00:17:16;;;;;;;15.53;8.00;;;;;;;5.15;62.63;143528.27;1834946;77;22132;-63
2021/10/08 00:19:51;;;;;;;18.87;9.68;;;;;;;5.13;62.70;143524.50;1819297;77;28381;-62
2021/10/08 00:22:26;;;;;;;17.42;8.53;;;;;;;5.17;62.87;143534.52;1853506;77;22573;-62
2021/10/08 00:25:01;;;;;;;20.68;9.10;;;;;;;5.16;63.08;143531.98;1834996;77;22164;-65
2021/10/08 00:27:35;;;;;;;20.02;9.53;;;;;;;5.12;63.13;143522.03;1834947;77;22576;-63
2021/10/08 00:30:11;;;;;;;21.68;8.68;;;;;;;5.12;63.63;143520.78;1853522;77;22127;-61
2021/10/08 00:32:45;;;;;;;16.25;8.00;;;;;;;5.09;63.91;143514.55;1834932;77;22156;-61
2021/10/08 00:35:41;;;;;;;23.47;9.40;;;;;;;5.08;64.44;143510.78;1834844;77;22291;-63
2021/10/08 00:38:22;;;;;;;20.32;10.10;;;;;;;5.05;64.78;143503.30;1853437;77;22192;-65
2021/10/08 00:40:56;;;;;;;17.00;9.03;;;;;;;5.02;65.27;143495.81;1834952;77;22160;-64
2021/10/08 00:43:31;;;;;;;17.95;9.05;;;;;;;4.96;65.67;143483.33;1834960;77;22594;-63
2021/10/08 00:46:06;;;;;;;15.63;8.83;;;;;;;4.90;66.01;143468.33;1834958;77;22140;-63
2021/10/08 00:49:00;;;;;;;16.55;8.33;;;;;;;4.87;66.19;143459.61;1834912;77;22144;-66
2021/10/08 00:51:35;;;;;;;23.20;9.25;;;;;;;4.82;66.24;143448.36;1853557;77;22147;-64
2021/10/08 00:54:09;;;;;;;19.17;8.88;;;;;;;4.78;66.46;143438.36;1834970;77;22133;-66
2021/10/08 00:56:47;;;;;;;14.95;8.10;;;;;;;4.75;66.53;143430.87;1834966;77;22183;-63
2021/10/08 00:59:22;;;;;;;16.02;8.93;;;;;;;4.73;66.60;143425.88;1834941;77;22153;-64
2021/10/08 01:01:57;;;;;;;13.78;8.60;;;;;;;4.69;66.83;143417.16;1834988;77;22224;-63
2021/10/08 01:04:34;;;;;;;19.12;8.25;;;;;;;4.68;66.84;143413.41;1834957;77;22164;-63
2021/10/08 01:07:34;;;;;;;18.40;8.63;;;;;;;4.67;66.81;143412.16;1834160;77;22168;-62
2021/10/08 01:10:29;;;;;;;16.30;8.95;;;;;;;4.66;66.96;143408.44;1853535;77;22135;-62
2021/10/08 01:13:24;;;;;;;13.90;7.97;;;;;;;4.64;67.10;143403.44;1835026;77;22121;-63
2021/10/08 01:16:00;;;;;;;14.13;8.58;;;;;;;4.62;67.21;143399.69;1834899;77;22204;-62
2021/10/08 01:18:35;;;;;;;16.85;8.33;;;;;;;4.61;67.17;143397.20;1834989;77;22140;-64
2021/10/08 01:21:16;;;;;;;15.63;8.55;;;;;;;4.63;67.12;143402.20;1834085;77;22184;-62
2021/10/08 01:23:51;;;;;;;13.93;8.50;;;;;;;4.62;67.16;143398.44;1853541;77;22566;-62
2021/10/08 01:26:25;;;;;;;15.10;8.10;;;;;;;4.60;67.11;143394.67;1853511;77;22570;-64
2021/10/08 01:29:00;;;;;;;17.65;8.18;;;;;;;4.59;67.09;143392.20;1834953;77;22586;-65
2021/10/08 01:31:35;;;;;;;16.25;8.50;;;;;;;4.60;67.05;143394.67;1853546;77;22152;-61
2021/10/08 01:34:10;;;;;;;12.75;7.42;;;;;;;4.60;67.25;143393.44;1834984;77;22148;-64
2021/10/08 01:36:45;;;;;;;14.78;8.33;;;;;;;4.60;67.10;143393.44;1853490;77;22152;-64
2021/10/08 01:39:20;;;;;;;17.27;8.68;;;;;;;4.57;67.26;143388.44;1834942;77;22149;-65
2021/10/08 01:41:55;;;;;;;16.37;9.08;;;;;;;4.53;67.41;143378.48;1848165;77;22160;-65
2021/10/08 01:44:29;;;;;;;20.40;9.15;;;;;;;4.50;67.55;143369.72;1834976;77;22157;-64
2021/10/08 01:47:05;;;;;;;17.37;7.87;;;;;;;4.45;67.67;143358.53;1834970;77;22144;-64
2021/10/08 01:49:40;;;;;;;13.55;8.00;;;;;;;4.42;67.80;143351.00;1835187;77;22156;-65
2021/10/08 01:52:16;;;;;;;19.35;8.55;;;;;;;4.39;67.98;143342.28;1853484;77;22167;-63
2021/10/08 01:54:57;;;;;;;15.05;9.18;;;;;;;4.37;68.15;143337.28;1834122;77;22176;-61
2021/10/08 01:57:33;;;;;;;16.93;8.45;;;;;;;4.35;68.39;143333.53;1834929;77;22203;-65
2021/10/08 02:00:09;;;;;;;14.15;7.75;;;;;;;4.30;68.55;143321.05;1834941;77;22136;-62
2021/10/08 02:03:05;;;;;;;21.48;9.15;;;;;;;4.27;68.68;143313.58;1834945;77;22140;-60
2021/10/08 02:05:40;;;;;;;16.73;8.85;;;;;;;4.25;68.82;143308.56;1834967;77;22164;-64
2021/10/08 02:08:35;;;;;;;16.87;8.45;;;;;;;4.22;69.04;143301.09;1835062;77;22125;-64
2021/10/08 02:11:11;;;;;;;18.90;8.35;;;;;;;4.21;69.24;143298.63;1834972;77;22129;-65
2021/10/08 02:14:05;;;;;;;14.23;8.23;;;;;;;4.21;69.29;143298.63;1853474;77;22163;-62
2021/10/08 02:16:40;;;;;;;13.72;9.03;;;;;;;4.20;69.37;143297.38;1819363;77;27979;-65
2021/10/08 02:19:15;;;;;;;14.53;7.30;;;;;;;4.23;69.34;143303.63;1853549;77;22131;-62
2021/10/08 02:21:50;;;;;;;17.92;7.55;;;;;;;4.23;69.34;143303.63;1848154;77;22156;-55
2021/10/08 02:24:46;;;;;;;16.90;9.48;;;;;;;4.30;70.56;143321.05;1837714;77;28015;-65
2021/10/08 02:27:21;;;;;;;17.52;9.33;;;;;;;4.40;69.36;143346.05;1834920;77;22124;-62
2021/10/08 02:29:56;;;;;;;18.12;8.48;;;;;;;4.33;69.15;143328.58;1834899;77;22571;-62
2021/10/08 02:32:31;;;;;;;15.35;8.20;;;;;;;4.27;69.17;143313.58;1834929;77;22124;-66
2021/10/08 02:35:08;;;;;;;15.63;9.33;;;;;;;4.22;69.24;143301.09;1853496;77;22549;-62
2021/10/08 02:37:42;;;;;;;15.10;8.38;;;;;;;4.16;69.33;143287.39;1834968;77;22136;-65
2021/10/08 02:40:17;;;;;;;16.20;9.03;;;;;;;4.13;69.21;143281.14;1834856;77;22191;-65
2021/10/08 02:42:52;;;;;;;16.55;8.53;;;;;;;4.11;69.18;143276.14;1834982;77;22582;-59
2021/10/08 02:45:29;;;;;;;14.68;8.68;;;;;;;4.10;69.19;143273.67;1834979;77;22124;-63
2021/10/08 02:48:05;;;;;;;20.50;8.65;;;;;;;4.09;69.23;143269.91;1853522;77;22156;-63
2021/10/08 02:50:40;;;;;;;15.05;9.08;;;;;;;4.06;69.34;143262.44;1834964;77;22157;-62
2021/10/08 02:53:15;;;;;;;18.25;8.78;;;;;;;4.02;69.32;143253.72;1853555;77;22132;-65
2021/10/08 02:55:50;;;;;;;16.65;8.90;;;;;;;3.98;69.49;143243.72;1834993;77;22157;-62
2021/10/08 02:58:44;;;;;;;16.17;9.03;;;;;;;3.94;69.72;143233.72;1834969;77;22235;-64
2021/10/08 03:01:18;;;;;;;19.67;10.20;;;;;;;3.91;69.97;143226.25;1853541;77;22123;-68
2021/10/08 03:03:53;;;;;;;15.13;9.48;;;;;;;3.87;70.17;143216.31;1835015;77;22149;-68
2021/10/08 03:06:28;;;;;;;15.65;8.83;;;;;;;3.85;70.33;143211.31;1834976;77;22172;-64
2021/10/08 03:09:03;;;;;;;19.20;8.58;;;;;;;3.82;70.38;143203.84;1853605;77;22144;-63
2021/10/08 03:11:44;;;;;;;17.23;8.65;;;;;;;3.82;70.41;143203.84;1853480;77;22169;-64
2021/10/08 03:14:38;;;;;;;17.60;9.55;;;;;;;3.79;70.56;143196.31;1833369;77;22201;-62
2021/10/08 03:17:32;;;;;;;16.95;9.38;;;;;;;3.76;70.72;143188.84;1853453;77;22163;-64
2021/10/08 03:20:32;;;;;;;21.27;10.10;;;;;;;3.73;70.75;143181.38;1853461;77;22157;-64
2021/10/08 03:23:07;;;;;;;14.43;9.65;;;;;;;3.72;70.91;143178.89;1834983;77;22137;-64
2021/10/08 03:26:02;;;;;;;21.40;9.88;;;;;;;3.67;71.08;143168.91;1853436;77;22558;-67
2021/10/08 03:28:38;;;;;;;18.10;10.50;;;;;;;3.64;71.15;143160.19;1837807;77;27983;-67
2021/10/08 03:31:33;;;;;;;17.57;9.23;;;;;;;3.70;71.17;143176.38;1853585;77;22147;-65
2021/10/08 03:34:07;;;;;;;19.07;8.65;;;;;;;3.68;71.12;143170.13;1834969;77;22129;-65
2021/10/08 03:39:27;;;;;;;19.12;9.60;;;;;;;3.65;71.18;143162.66;1834978;77;22575;-64
2021/10/08 03:42:22;;;;;;;19.70;11.03;;;;;;;3.63;71.24;143158.91;1834976;77;22243;-64
2021/10/08 03:45:16;;;;;;;20.80;10.03;;;;;;;3.64;71.29;143161.42;1834944;77;22124;-68
2021/10/08 03:47:57;;;;;;;18.82;10.00;;;;;;;3.62;71.28;143155.19;1843365;78;22598;-64
2021/10/08 03:50:48;;;;;;;19.02;9.35;;;;;;;3.61;71.23;143153.95;1853438;77;22594;-62
2021/10/08 03:53:42;;;;;;;18.55;10.60;;;;;;;3.65;71.06;143162.66;1834869;77;22201;-64
2021/10/08 03:56:16;;;;;;;21.97;10.90;;;;;;;3.67;71.00;143167.66;1834948;77;22160;-66
2021/10/08 03:58:52;;;;;;;23.47;10.58;;;;;;;3.67;70.99;143168.91;1853527;77;22174;-67
2021/10/08 04:01:29;;;;;;;20.43;11.18;;;;;;;3.66;71.21;143166.42;1834689;77;22622;-63
2021/10/08 04:04:07;;;;;;;21.68;12.23;;;;;;;3.66;71.15;143166.42;1837734;77;28030;-62
2021/10/08 04:06:40;;;;;;;19.50;11.25;;;;;;;3.72;71.12;143180.13;1835173;77;20210;-63
2021/10/08 04:09:15;;;;;;;23.20;11.35;;;;;;;3.73;71.08;143181.38;1853529;77;22159;-64
2021/10/08 04:11:50;;;;;;;21.10;11.88;;;;;;;3.72;71.00;143178.89;1837876;77;28001;-64
2021/10/08 04:14:25;;;;;;;16.65;10.68;;;;;;;3.76;70.91;143188.84;1834964;77;22156;-63
2021/10/08 04:17:00;;;;;;;18.37;10.85;;;;;;;3.77;70.92;143192.59;1843428;77;22153;-65
2021/10/08 04:19:34;;;;;;;19.92;11.57;;;;;;;3.75;70.88;143187.59;1834950;77;22567;-73
2021/10/08 04:22:15;;;;;;;25.72;10.65;;;;;;;3.76;70.90;143188.84;1853446;77;22199;-72
2021/10/08 04:24:50;;;;;;;21.05;10.43;;;;;;;3.78;70.85;143195.08;1834904;77;22137;-64
2021/10/08 04:27:26;;;;;;;26.77;11.60;;;;;;;3.82;70.75;143205.08;1834895;77;22245;-63
2021/10/08 04:30:01;;;;;;;19.40;10.58;;;;;;;3.87;70.62;143216.31;1853495;77;22156;-64
2021/10/08 04:32:36;;;;;;;25.68;11.53;;;;;;;3.93;70.50;143230.02;1834935;77;22226;-64
2021/10/08 04:35:10;;;;;;;26.65;11.38;;;;;;;4.22;70.15;143301.09;1834851;77;23258;-70
2021/10/08 04:37:46;;;;;;;18.35;10.35;;;;;;;4.95;68.45;143479.56;1825482;77;22191;-65
2021/10/08 04:40:43;;;;;;;26.37;12.15;;;;;;;5.87;66.00;143705.59;1819082;77;27941;-70
2021/10/08 04:43:18;;;;;;;16.55;10.75;;;;;;;6.67;63.45;143900.64;1843328;77;22135;-64
2021/10/08 04:46:12;;;;;;;21.05;10.88;;;;;;;7.48;60.39;144098.25;1834949;77;22551;-64
2021/10/08 04:49:06;;;;;;;15.05;9.98;;;;;;;8.15;57.89;144260.94;1834936;77;22136;-66
2021/10/08 04:52:01;;;;;;;16.10;10.28;;;;;;;8.82;55.59;144425.00;1834968;77;22161;-66
2021/10/08 04:54:55;;;;;;;17.45;10.10;;;;;;;9.49;53.16;144589.09;1834917;77;22160;-64
2021/10/08 04:57:56;;;;;;;18.77;10.53;;;;;;;10.11;51.64;144742.03;1853740;77;22212;-68
2021/10/08 05:00:51;;;;;;;18.10;10.53;;;;;;;10.82;49.56;144916.41;1834927;77;22577;-66
2021/10/08 05:03:27;;;;;;;14.75;9.55;;;;;;;11.49;47.92;145079.53;1834757;77;22160;-64
2021/10/08 05:06:03;;;;;;;20.45;11.50;;;;;;;11.97;45.79;145196.34;1834937;77;22216;-68
2021/10/08 05:08:38;;;;;;;16.90;10.70;;;;;;;12.49;45.92;145324.41;1819412;77;28439;-66
2021/10/08 05:11:33;;;;;;;18.67;10.85;;;;;;;13.12;43.32;145478.97;1835001;77;22128;-65
2021/10/08 05:14:14;;;;;;;17.98;10.30;;;;;;;13.45;42.41;145561.97;1834101;77;22261;-66
2021/10/08 05:16:48;;;;;;;18.80;9.95;;;;;;;13.86;41.25;145661.30;1834931;77;22586;-64
2021/10/08 05:20:00;;;;;;;18.42;9.93;;;;;;;14.01;40.67;145699.02;1793484;77;21127;-67
2021/10/08 05:22:35;;;;;;;16.15;9.50;;;;;;;14.62;39.25;145847.52;1853413;77;22151;-66
2021/10/08 05:25:09;;;;;;;18.52;10.30;;;;;;;14.81;38.50;145895.34;1835050;77;22133;-69
2021/10/08 05:27:45;;;;;;;21.37;10.15;;;;;;;14.98;38.48;145938.14;1853418;77;22179;-70
2021/10/08 05:30:19;;;;;;;17.73;9.93;;;;;;;15.10;37.74;145967.06;1833848;77;22224;-67
2021/10/08 05:33:01;;;;;;;17.65;10.55;;;;;;;15.31;37.07;146017.41;1852810;77;22603;-67
2021/10/08 05:35:39;;;;;;;15.78;9.80;;;;;;;15.38;36.93;146036.30;1811723;77;22199;-62
2021/10/08 05:38:34;;;;;;;29.30;11.25;;;;;;;15.57;36.37;146081.61;1806808;77;22266;-67
2021/10/08 05:41:35;;;;;;;17.37;10.25;;;;;;;15.70;36.39;146114.44;1826961;77;22239;-66
2021/10/08 05:44:15;;;;;;;18.55;9.73;;;;;;;15.82;35.68;146144.66;1833636;77;22202;-63
2021/10/08 05:46:54;;;;;;;25.88;10.13;;;;;;;16.03;35.32;146195.05;1834397;77;22234;-63
2021/10/08 05:49:34;;;;;;;17.42;10.25;;;;;;;16.30;34.96;146260.53;1853177;77;22266;-64
2021/10/08 05:52:31;;;;;;;24.92;10.40;;;;;;;16.61;34.63;146338.66;1834558;77;22605;-65
2021/10/08 05:55:33;;;;;;;17.30;9.43;;;;;;;16.77;34.18;146376.47;1853373;77;22210;-65
2021/10/08 05:58:33;;;;;;;18.37;9.73;;;;;;;17.06;33.67;146449.59;1834076;77;22623;-64
2021/10/08 06:01:28;;;;;;;19.90;9.70;;;;;;;17.38;33.81;146526.47;1834723;77;22622;-64
2021/10/08 06:04:22;;;;;;;18.15;11.22;;;;;;;17.81;33.08;146633.75;1853599;77;22557;-66
2021/10/08 06:06:57;;;;;;;16.48;9.90;;;;;;;18.38;32.03;146775.02;1834980;77;22132;-64
2021/10/08 06:09:34;;;;;;;22.87;11.30;;;;;;;18.63;31.34;146835.61;1819228;77;28459;-65
2021/10/08 06:12:28;;;;;;;17.65;9.83;;;;;;;19.13;30.92;146958.06;1853482;77;22151;-66
2021/10/08 06:15:25;;;;;;;16.37;9.20;;;;;;;19.35;30.07;147012.38;1853479;77;22191;-65
2021/10/08 06:18:19;;;;;;;14.33;8.98;;;;;;;19.58;29.67;147070.44;1834838;77;22180;-65
2021/10/08 06:20:54;;;;;;;16.60;9.95;;;;;;;19.80;29.02;147123.56;1834960;77;22124;-64
2021/10/08 06:23:29;;;;;;;22.13;9.95;;;;;;;19.54;29.19;147060.38;1834985;77;22133;-65
2021/10/08 06:26:06;;;;;;;12.47;8.80;;;;;;;19.94;28.92;147160.16;1853515;77;22566;-64
2021/10/08 06:29:00;;;;;;;19.20;10.18;;;;;;;20.28;28.07;147242.31;1819389;77;28590;-65
2021/10/08 06:31:34;;;;;;;16.60;9.85;;;;;;;20.45;27.97;147285.22;1834976;77;22140;-64
2021/10/08 06:34:16;;;;;;;18.12;8.60;;;;;;;20.71;27.67;147349.77;1834082;77;22575;-64
2021/10/08 06:36:50;;;;;;;14.58;9.28;;;;;;;21.02;27.28;147426.84;1834957;77;22156;-68
2021/10/08 06:39:26;;;;;;;12.33;8.38;;;;;;;21.24;26.76;147479.94;1853600;77;22180;-64
2021/10/08 06:42:02;;;;;;;22.93;8.68;;;;;;;21.63;26.53;147577.37;1835017;77;22124;-64
2021/10/08 06:44:58;;;;;;;21.37;10.03;;;;;;;21.53;26.50;147550.81;1834950;77;22152;-65
2021/10/08 06:47:53;;;;;;;18.27;9.83;;;;;;;21.82;26.36;147624.14;1853464;77;22159;-64
2021/10/08 06:50:34;;;;;;;15.38;8.98;;;;;;;22.36;25.71;147755.77;1834052;77;22187;-65
2021/10/08 06:53:09;;;;;;;17.20;8.55;;;;;;;22.52;25.14;147797.53;1853529;77;22201;-65
2021/10/08 06:56:04;;;;;;;16.17;8.90;;;;;;;22.32;25.32;147748.17;1834969;77;22136;-64
2021/10/08 06:59:06;;;;;;;17.70;9.18;;;;;;;22.05;25.22;147681.06;1834899;77;22156;-66
2021/10/08 07:01:41;;;;;;;18.00;9.83;;;;;;;22.12;25.63;147697.53;1819512;77;38707;-64
2021/10/08 07:04:41;;;;;;;21.75;10.05;;;;;;;22.59;24.80;147813.95;1834121;77;22188;-64
2021/10/08 07:07:34;;;;;;;22.80;9.65;;;;;;;22.62;24.85;147821.59;1835084;77;22136;-64
2021/10/08 07:10:31;;;;;;;23.90;10.35;;;;;;;22.68;24.73;147835.50;1853499;77;22633;-64
2021/10/08 07:13:07;;;;;;;16.17;8.90;;;;;;;22.82;24.79;147870.95;1834989;77;22567;-66
2021/10/08 07:16:01;;;;;;;20.05;9.63;;;;;;;23.32;24.25;147993.77;1853469;77;22604;-66
2021/10/08 07:18:38;;;;;;;21.33;9.08;;;;;;;23.77;23.25;148105.27;1843421;77;22200;-65
2021/10/08 07:21:14;;;;;;;19.52;9.80;;;;;;;23.74;23.31;148097.69;1819401;77;28027;-65
2021/10/08 07:23:56;;;;;;;18.30;9.08;;;;;;;23.70;23.66;148087.48;1834068;77;22606;-65
2021/10/08 07:26:33;;;;;;;17.42;9.43;;;;;;;24.04;23.06;148173.67;1837743;77;28408;-63
2021/10/08 07:29:26;;;;;;;14.50;7.60;;;;;;;24.17;22.39;148204.03;1820762;77;22534;-65
2021/10/08 07:32:21;;;;;;;20.45;8.40;;;;;;;23.65;22.65;148076.08;1816234;77;22204;-66
2021/10/08 07:35:16;;;;;;;15.40;8.60;;;;;;;23.72;22.87;148092.56;1823313;77;22278;-65
2021/10/08 07:37:51;;;;;;;16.70;8.13;;;;;;;23.54;22.85;148049.50;1835036;77;20361;-63
2021/10/08 07:40:32;;;;;;;16.40;8.13;;;;;;;23.03;23.22;147921.63;1834271;77;22707;-63
2021/10/08 07:43:26;;;;;;;17.92;8.10;;;;;;;22.49;24.00;147789.95;1853563;77;22581;-73
2021/10/08 07:46:21;;;;;;;16.48;8.20;;;;;;;22.36;24.05;147757.02;1834918;77;22201;-70
2021/10/08 07:48:57;;;;;;;15.95;7.92;;;;;;;22.63;24.33;147822.84;1834823;77;22201;-70
2021/10/08 07:51:32;;;;;;;14.25;7.45;;;;;;;22.94;23.86;147900.03;1834976;77;22239;-69
2021/10/08 07:54:08;;;;;;;17.20;7.62;;;;;;;22.94;23.74;147900.03;1819340;77;28004;-69
2021/10/08 07:57:04;;;;;;;19.23;7.87;;;;;;;23.39;23.23;148012.77;1853538;77;22072;-68
2021/10/08 07:59:46;;;;;;;13.13;6.55;;;;;;;23.33;23.31;147996.28;1853621;77;22535;-69
2021/10/08 08:02:22;;;;;;;11.45;6.95;;;;;;;22.78;23.58;147859.55;1835010;77;22294;-69
2021/10/08 08:04:58;;;;;;;18.48;6.97;;;;;;;21.76;24.65;147608.98;1853510;77;22175;-68
2021/10/08 08:07:33;;;;;;;11.33;7.22;;;;;;;21.42;25.15;147525.53;1834969;77;22259;-71
2021/10/08 08:10:14;;;;;;;19.10;7.83;;;;;;;20.59;25.99;147320.67;1853504;77;22077;-68
2021/10/08 08:12:49;;;;;;;16.23;8.27;;;;;;;20.04;26.85;147184.16;1837930;77;28463;-69
2021/10/08 08:15:30;;;;;;;19.12;7.87;;;;;;;19.73;27.20;147107.13;1834193;77;22346;-67
2021/10/08 08:18:24;;;;;;;19.00;8.00;;;;;;;18.85;28.50;146891.19;1834928;77;22187;-67
2021/10/08 08:21:19;;;;;;;15.53;8.75;;;;;;;18.35;29.43;146767.47;1853483;77;22156;-69
2021/10/08 08:24:00;;;;;;;13.95;7.33;;;;;;;18.03;30.04;146687.97;1834218;77;22180;-70
2021/10/08 08:26:55;;;;;;;16.07;7.55;;;;;;;18.23;29.95;146737.17;1853539;77;22179;-70
2021/10/08 08:29:55;;;;;;;18.37;7.80;;;;;;;17.82;30.27;146636.27;1811314;77;22644;-71
2021/10/08 08:32:32;;;;;;;17.97;8.33;;;;;;;17.15;31.23;146471.05;1819488;77;27988;-61
2021/10/08 08:35:09;;;;;;;15.65;8.13;;;;;;;17.06;31.64;146449.59;1834911;77;22570;-62
2021/10/08 08:39:43;;;;;;;18.12;7.67;;;;;;;17.42;31.48;146536.58;1834868;77;25998;-61
2021/10/08 08:42:20;;;;;;;16.30;7.47;;;;;;;17.02;31.57;146439.53;1835035;77;20210;-61
2021/10/08 08:45:14;;;;;;;17.45;7.53;;;;;;;16.16;32.36;146226.53;1837384;77;28411;-62
2021/10/08 08:48:08;;;;;;;7.37;4.05;;;;;;;15.66;33.04;146104.30;1834863;77;22159;-59
2021/10/08 08:50:47;;;;;;;9.85;4.42;;;;;;;14.52;31.64;145824.81;1835007;77;22567;-61
2021/10/08 08:54:03;;;;;;;8.28;3.70;;;;;;;13.68;31.96;145617.28;1842018;77;22231;-63
2021/10/08 08:56:38;;;;;;;11.28;3.75;;;;;;;12.88;33.19;145419.94;1853553;77;22623;-62
2021/10/08 08:59:35;;;;;;;10.82;3.80;;;;;;;12.51;33.74;145329.45;1819345;77;38785;-57
2021/10/08 09:02:17;;;;;;;9.88;3.55;;;;;;;12.22;34.31;145259.13;1853472;77;22190;-58
2021/10/08 09:05:20;;;;;;;8.70;3.65;;;;;;;11.89;34.58;145178.75;1831034;77;22175;-62
2021/10/08 09:08:13;;;;;;;13.72;4.22;;;;;;;11.64;35.22;145117.19;1818019;77;22170;-58
2021/10/08 09:11:08;;;;;;;11.10;4.35;;;;;;;11.66;35.33;145120.97;1834964;77;22184;-58
2021/10/08 09:14:21;;;;;;;9.35;3.95;;;;;;;11.66;35.84;145122.22;1853520;77;22136;-57
2021/10/08 09:17:11;;;;;;;6.25;2.95;;;;;;;11.39;35.15;145055.67;1853546;77;22558;-57
2021/10/08 09:20:16;;;;;;;9.63;3.62;;;;;;;11.29;35.15;145030.56;1853677;77;22152;-61
2021/10/08 09:23:10;;;;;;;9.70;3.20;;;;;;;11.15;35.50;144995.47;1834942;77;22136;-58
2021/10/08 09:26:21;;;;;;;7.62;3.65;;;;;;;10.93;36.29;144942.75;1835054;77;22185;-67
2021/10/08 09:29:17;;;;;;;12.33;4.42;;;;;;;10.83;36.37;144917.66;1834960;77;22116;-65
2021/10/08 09:31:52;;;;;;;8.70;4.00;;;;;;;10.81;36.64;144912.63;1853562;77;22151;-66
2021/10/08 09:34:49;;;;;;;7.35;3.58;;;;;;;10.86;37.03;144925.17;1853551;77;22151;-67
2021/10/08 09:37:29;;;;;;;9.60;4.10;;;;;;;10.90;36.98;144935.22;1835003;77;22630;-57
2021/10/08 09:40:51;;;;;;;14.68;4.70;;;;;;;11.07;36.79;144976.64;1834932;77;22141;-65
2021/10/08 09:44:04;;;;;;;10.50;4.20;;;;;;;11.09;36.69;144981.62;1825791;77;22639;-68
2021/10/08 09:47:23;;;;;;;13.35;4.55;;;;;;;11.00;36.98;144959.06;1834503;77;22163;-69
2021/10/08 09:50:11;;;;;;;8.45;4.03;;;;;;;10.94;37.07;144945.28;1853591;77;22164;-67
2021/10/08 09:52:48;;;;;;;8.48;4.30;;;;;;;10.87;37.54;144927.70;1853520;77;22574;-69
2021/10/08 09:55:26;;;;;;;11.60;5.20;;;;;;;10.83;37.69;144918.89;1834933;77;22152;-68
2021/10/08 09:58:07;;;;;;;10.15;4.17;;;;;;;10.90;37.68;144935.22;1834377;77;22132;-67
2021/10/08 10:01:04;;;;;;;10.65;5.37;;;;;;;11.01;37.65;144962.80;1853572;77;22151;-69
2021/10/08 10:03:43;;;;;;;10.48;4.75;;;;;;;11.16;37.55;144999.20;1819534;77;27992;-68
2021/10/08 10:06:20;;;;;;;14.05;3.85;;;;;;;11.33;37.24;145040.63;1835057;77;22173;-69
2021/10/08 10:08:55;;;;;;;12.95;4.30;;;;;;;11.35;36.08;145044.36;1853530;77;22144;-69
2021/10/08 10:11:32;;;;;;;11.55;3.90;;;;;;;11.22;36.26;145014.28;1837778;77;28003;-68
2021/10/08 10:14:25;;;;;;;10.58;3.45;;;;;;;11.15;36.49;144996.70;1834971;77;22603;-67
2021/10/08 10:17:20;;;;;;;10.18;4.00;;;;;;;11.18;36.75;145002.98;1834955;77;22156;-67
2021/10/08 10:19:55;;;;;;;7.75;4.20;;;;;;;11.12;36.94;144989.19;1834974;77;22156;-69
2021/10/08 10:22:37;;;;;;;9.33;4.28;;;;;;;11.24;36.76;145018.03;1834131;77;23086;-68
2021/10/08 10:25:13;;;;;;;13.53;4.87;;;;;;;11.26;37.05;145023.06;1853638;77;22163;-69
2021/10/08 10:28:07;;;;;;;12.35;4.20;;;;;;;11.37;37.31;145050.69;1834965;77;22149;-68
2021/10/08 10:31:01;;;;;;;13.18;5.45;;;;;;;11.42;36.98;145061.94;1834989;77;22187;-69
2021/10/08 10:33:43;;;;;;;11.33;5.35;;;;;;;11.48;37.20;145078.28;1834131;77;22610;-66
2021/10/08 10:36:31;;;;;;;11.45;5.28;;;;;;;11.60;36.97;145107.17;1819402;77;28005;-66
2021/10/08 10:39:25;;;;;;;9.73;4.67;;;;;;;11.65;37.00;145118.42;1853507;77;22139;-68
2021/10/08 10:42:18;;;;;;;11.53;5.40;;;;;;;11.77;36.64;145148.56;1834993;77;22148;-67
2021/10/08 10:48:19;;;;;;;9.93;5.03;;;;;;;11.97;36.66;145196.34;1853456;77;22163;-69
2021/10/08 10:51:14;;;;;;;11.97;5.08;;;;;;;12.07;36.76;145221.45;1834936;77;22153;-67
2021/10/08 10:53:53;;;;;;;15.75;4.75;;;;;;;12.22;36.22;145259.13;1853543;77;22148;-67
2021/10/08 10:56:41;;;;;;;23.02;5.42;;;;;;;12.25;35.69;145266.66;1853591;77;22132;-67
2021/10/08 10:59:27;;;;;;;13.90;4.40;;;;;;;12.32;35.78;145284.25;1853583;77;22131;-67
2021/10/08 11:04:55;;;;;;;8.38;3.92;;;;;;;12.34;35.74;145289.28;1879473;76;22138;-67
2021/10/08 11:07:30;;;;;;;13.00;4.12;;;;;;;12.42;34.98;145308.11;1834932;77;22571;-66
2021/10/08 11:10:25;;;;;;;12.30;4.97;;;;;;;12.45;34.04;145314.39;1834974;77;22527;-67
2021/10/08 11:13:38;;;;;;;10.88;4.00;;;;;;;12.48;33.96;145321.92;1853536;77;22127;-67
2021/10/08 11:16:18;;;;;;;10.72;3.33;;;;;;;12.40;34.03;145303.08;1834844;77;22625;-67
2021/10/08 11:18:54;;;;;;;12.37;3.25;;;;;;;12.31;33.44;145281.75;1853575;77;22278;-66
2021/10/08 11:21:41;;;;;;;11.15;3.55;;;;;;;12.27;33.56;145271.69;1835007;77;22128;-67
2021/10/08 11:24:23;;;;;;;10.25;3.15;;;;;;;12.45;33.39;145314.39;1853598;77;22219;-67
2021/10/08 11:27:02;;;;;;;9.33;2.75;;;;;;;12.57;32.43;145345.80;1835015;77;22136;-68
2021/10/08 11:29:40;;;;;;;8.93;3.37;;;;;;;12.70;32.36;145375.95;1834778;77;22606;-69
2021/10/08 11:32:15;;;;;;;13.15;3.40;;;;;;;12.82;32.47;145406.08;1835010;77;22235;-67
2021/10/08 11:34:56;;;;;;;5.17;2.80;;;;;;;13.09;32.12;145472.69;1834225;77;22180;-68
2021/10/08 11:37:43;;;;;;;8.10;2.72;;;;;;;13.22;31.76;145505.36;1819340;77;27986;-68
2021/10/08 11:40:41;;;;;;;9.08;2.98;;;;;;;13.06;31.62;145465.16;1853569;77;20206;-68
2021/10/08 11:46:17;;;;;;;10.35;3.37;;;;;;;12.77;31.84;145394.80;1834970;77;22133;-69
2021/10/08 11:48:53;;;;;;;15.53;3.25;;;;;;;12.75;31.77;145389.77;1834962;77;22235;-68
2021/10/08 11:51:56;;;;;;;5.75;2.22;;;;;;;12.80;31.42;145401.08;1834129;77;22157;-68
2021/10/08 11:54:31;;;;;;;17.32;3.15;;;;;;;12.97;30.47;145442.52;1853529;77;22160;-67
2021/10/08 11:57:09;;;;;;;9.83;3.20;;;;;;;13.13;30.34;145482.75;1834992;77;22161;-69
2021/10/08 11:59:59;;;;;;;8.30;2.65;;;;;;;13.25;29.88;145511.64;1843401;77;22551;-67
2021/10/08 12:02:34;;;;;;;15.50;2.90;;;;;;;13.28;28.81;145517.97;1853517;77;22557;-68
2021/10/08 12:05:09;;;;;;;9.38;2.62;;;;;;;13.30;28.64;145523.00;1853568;77;22127;-68
2021/10/08 12:08:02;;;;;;;5.37;2.00;;;;;;;13.16;28.46;145490.28;1834924;77;22558;-67
2021/10/08 12:10:35;;;;;;;10.03;2.45;;;;;;;13.12;28.94;145478.97;1835008;77;22578;-67
2021/10/08 12:13:16;;;;;;;7.17;2.65;;;;;;;13.12;29.40;145478.97;1834140;77;22128;-69
2021/10/08 12:15:55;;;;;;;20.15;2.95;;;;;;;13.10;29.61;145473.94;1834982;77;22148;-68
2021/10/08 12:18:30;;;;;;;9.13;2.50;;;;;;;13.35;29.76;145535.58;1835032;77;22160;-67
2021/10/08 12:21:30;;;;;;;11.15;2.50;;;;;;;13.41;29.60;145551.94;1819415;77;27987;-69
2021/10/08 12:24:26;;;;;;;7.97;2.62;;;;;;;13.25;29.56;145512.94;1834778;77;22562;-70
2021/10/08 12:27:20;;;;;;;6.65;2.75;;;;;;;13.16;29.86;145489.05;1853586;77;22582;-67
2021/10/08 12:30:13;;;;;;;10.75;2.25;;;;;;;13.08;30.62;145470.19;1835091;77;22124;-69
2021/10/08 12:33:07;;;;;;;11.22;2.37;;;;;;;13.21;30.69;145502.86;1834931;77;22558;-69
2021/10/08 12:35:42;;;;;;;6.83;2.55;;;;;;;13.36;29.52;145539.37;1834990;77;22156;-67
2021/10/08 12:38:17;;;;;;;12.33;3.72;;;;;;;13.45;29.59;145560.72;1853612;77;22184;-69
2021/10/08 12:40:54;;;;;;;13.62;3.50;;;;;;;13.55;29.20;145585.86;1835001;77;22148;-69
2021/10/08 12:43:29;;;;;;;10.32;3.35;;;;;;;13.73;29.22;145629.86;1819587;77;28010;-67
2021/10/08 12:46:10;;;;;;;9.48;2.67;;;;;;;13.96;28.70;145686.44;1853493;77;22131;-69
2021/10/08 12:48:41;;;;;;;6.95;2.35;;;;;;;14.06;28.43;145711.59;1835200;77;22157;-66